Flight Track Log - Related Links

Times and Time Zones

All times are in EDT time to prevent confusion due to time zone crossing. See the UAL4257 flight status page for this flight to view local times or setup timezone preferences in your user account.

Time Position Orientation Groundspeed Altitude Reporting Facility
EDT Latitude Longitude Course Direction KTS MPH feet Rate Location/Type
Sun 11:59:00 AM 25.9216 -99.9118 42° Northeast  Level FlightAware Approximate
Sun 12:00:00 PM 25.9739 -99.8499 52° Northeast  Level FlightAware Approximate
Sun 12:01:00 PM 26.0215 -99.7832 52° Northeast  Level FlightAware Approximate
Sun 12:02:00 PM 26.0711 -99.7181 49° Northeast  Level FlightAware Approximate
Sun 12:02:14 PM 25.8747 -99.7289 47° Northeast 296 341 12,200  Level Houston Center
Sun 12:03:00 PM 26.1213 -99.6536 49° Northeast  Level FlightAware Approximate
Sun 12:03:16 PM 25.9411 -99.6594 43° Northeast 312 359 12,800  Level Houston Center
Sun 12:04:00 PM 26.1725 -99.5902 47° Northeast  Level FlightAware Approximate
Sun 12:04:18 PM 26.0122 -99.5803 45° Northeast 337 388 13,800  Level Houston Center
Sun 12:05:00 PM 26.2251 -99.5281 47° Northeast  Level FlightAware Approximate
Sun 12:05:20 PM 26.0842 -99.5008 45° Northeast 353 406 14,900  Level Houston Center
Sun 12:06:00 PM 26.2777 -99.4659 47° Northeast  Level FlightAware Approximate
Sun 12:06:22 PM 26.1572 -99.4192 45° Northeast 363 418 16,000  Level Houston Center
Sun 12:07:00 PM 26.3302 -99.4037 47° Northeast  Level FlightAware Approximate
Sun 12:07:24 PM 26.2464 -99.3217 44° Northeast 370 426 17,100  Level Houston Center
Sun 12:08:26 PM 26.3211 -99.2361 46° Northeast 376 433 18,000 864 Climbing Houston Center
Sun 12:09:29 PM 26.3972 -99.1522 45° Northeast 382 440 18,900 768 Climbing Houston Center
Sun 12:10:31 PM 26.4797 -99.0736 40° Northeast 387 445 19,600 677 Climbing Houston Center
Sun 12:11:33 PM 26.5653 -98.9964 39° Northeast 392 451 20,300 677 Climbing Houston Center
Sun 12:12:35 PM 26.6519 -98.9167 39° Northeast 399 459 21,000 871 Climbing Houston Center
Sun 12:13:37 PM 26.7567 -98.8225 39° Northeast 402 463 22,100 871 Climbing Houston Center
Sun 12:14:39 PM 26.8431 -98.7428 39° Northeast 405 466 22,800 823 Climbing Houston Center
Sun 12:15:41 PM 26.9294 -98.6622 40° Northeast 405 466 23,800 919 Climbing Houston Center
Sun 12:16:43 PM 27.0158 -98.5828 39° Northeast 404 465 24,700 871 Climbing Houston Center
Sun 12:17:45 PM 27.1006 -98.5028 40° Northeast 402 463 25,600 1,016 Climbing Houston Center
Sun 12:18:47 PM 27.2036 -98.4078 39° Northeast 402 463 26,800 1,065 Climbing Houston Center
Sun 12:19:49 PM 27.2889 -98.3278 40° Northeast 402 463 27,800 919 Climbing Houston Center
Sun 12:20:51 PM 27.3747 -98.2483 39° Northeast 402 463 28,700 919 Climbing Houston Center
Sun 12:21:53 PM 27.4597 -98.1675 40° Northeast 402 463 29,700 968 Climbing Houston Center
Sun 12:22:55 PM 27.5456 -98.0881 39° Northeast 402 463 30,700 1,008 Climbing Houston Center
Sun 12:23:58 PM 27.6481 -97.9922 40° Northeast 401 461 31,800 1,008 Climbing Houston Center
Sun 12:25:00 PM 27.7339 -97.9122 40° Northeast 401 461 32,800 581 Climbing Houston Center
Sun 12:26:02 PM 27.8208 -97.8289 40° Northeast 410 472 33,000 97 Climbing Houston Center
Sun 12:27:04 PM 27.9142 -97.7433 39° Northeast 431 496 33,000  Level Houston Center
Sun 12:28:06 PM 28.0233 -97.6381 40° Northeast 440 506 33,000  Level Houston Center
Sun 12:29:08 PM 28.1189 -97.5489 39° Northeast 443 510 33,000  Level Houston Center
Sun 12:30:10 PM 28.2119 -97.4597 40° Northeast 440 506 33,000  Level Houston Center
Sun 12:31:11 PM 28.3061 -97.3697 40° Northeast 441 507 33,000  Level Houston Center
Sun 12:32:13 PM 28.4008 -97.2803 40° Northeast 442 509 33,000  Level Houston Center
Sun 12:33:15 PM 28.4953 -97.1897 40° Northeast 444 511 33,000  Level Houston Center
Sun 12:34:17 PM 28.6081 -97.0811 40° Northeast 444 511 33,000 -194 Level Houston Center
Sun 12:35:19 PM 28.7022 -96.9900 40° Northeast 444 511 32,600 -1,161 Descending Houston Center
Sun 12:36:21 PM 28.7956 -96.9000 40° Northeast 443 510 30,600 -2,032 Descending Houston Center
Sun 12:37:23 PM 28.8900 -96.8069 41° Northeast 448 516 28,400 -2,226 Descending Houston Center
Sun 12:38:25 PM 28.9883 -96.7119 40° Northeast 460 529 26,000 -2,371 Descending Houston Center
Sun 12:39:27 PM 29.0886 -96.6158 40° Northeast 472 543 23,500 -2,870 Descending Houston Center
Sun 12:39:57 PM 29.1425 -96.5631 41° Northeast 454 522 21,600 -3,194 Descending Houston Center
Sun 12:40:29 PM 29.1964 -96.5108 40° Northeast 437 503 20,200 -2,387 Descending Houston Center
Sun 12:41:30 PM 29.2856 -96.4236 40° Northeast 428 493 17,900 -2,176 Descending Houston Center
Sun 12:42:00 PM 29.3289 -96.3825 40° Northeast 419 482 16,900 -2,242 Descending Houston Center
Sun 12:43:01 PM 29.4197 -96.2911 41° Northeast 397 457 14,500 -2,106 Descending Houston Center
Sun 12:43:34 PM 29.4514 -96.2594 41° Northeast 391 450 13,600 -1,579 Descending Houston Center
Sun 12:44:36 PM 29.5311 -96.1825 40° Northeast 380 437 12,000 -823 Descending Houston Center
Sun 12:45:38 PM 29.5889 -96.0817 57° Northeast 316 364 11,900 -48 Descending Houston Center
Sun 12:46:40 PM 29.6317 -95.9953 60° Northeast 312 359 11,900  Level Houston Center
Sun 12:47:42 PM 29.6708 -95.9192 59° Northeast 307 353 11,900 -98 Level Houston Center
Sun 12:48:43 PM 29.7092 -95.8422 60° Northeast 283 326 11,700 -927 Descending Houston Center
Sun 12:49:45 PM 29.7539 -95.7536 60° Northeast 268 308 10,000 -1,500 Descending Houston Center
Sun 12:50:47 PM 29.7900 -95.6806 60° Northeast 263 303 8,600 -1,113 Descending Houston Center
Sun 12:51:49 PM 29.8256 -95.6108 60° Northeast 254 292 7,700 -919 Descending Houston Center
Sun 12:52:51 PM 29.8578 -95.5450 61° Northeast 238 274 6,700 -823 Descending Houston Center
Sun 12:53:53 PM 29.8892 -95.4822 60° Northeast 228 262 6,000 -339 Descending Houston Center
Sun 12:54:55 PM 29.8964 -95.4133 83° East 224 258 6,000  Level Houston Center
Sun 12:56:17 PM 29.8956 -95.3081 90° East 197 227 6,000 48 Level Houston Center
Sun 12:56:59 PM 29.8969 -95.2653 88° East 202 232 6,100 -288 Climbing Houston Center
Sun 12:58:01 PM 29.8975 -95.2022 89° East 197 227 5,500 -976 Descending Houston Center
Sun 12:59:02 PM 29.9267 -95.1664 47° Northeast 194 223 4,100 -1,463 Descending Houston Center
Sun 01:00:04 PM 29.9814 -95.1697 357° North 206 237 2,500 -1,065 Descending Houston Center
Sun 01:01:06 PM 29.9942 -95.2236 285° West 187 215 1,900 -677 Descending Houston Center
Sun 01:02:08 PM 29.9936 -95.2681 269° West 162 186 1,100 -823 Descending Houston Center
Sun 01:03:10 PM 29.9939 -95.3203 270° West 144 166 200 -871 Descending Houston Center

Login

Don't have an account? Register now (free) for customized features, flight alerts, and more!